Weather

Currently

Time Weather Temperature Precipitation Clouds Wind Wind Bumps Pressure
06:10 9,6 °C 9,3 °C 0,0 mm/h 95 % 0,3 m/s 1014,9 mb

Current values recorded by the weather station installed in the spa park. Data updated at 6:10.


Forecast

Time Weather Temperature Precipitation Clouds Wind Wind Bumps Pressure
16:00 8,2 °C 0,01 mm/h 5 % 9,7 m/s 22,3 m/s 1008 hPa
17:00 7,5 °C 0,02 mm/h 20 % 8,9 m/s 21,7 m/s 1009 hPa
18:00 7,3 °C 0,01 mm/h 6 % 8,1 m/s 19,7 m/s 1009 hPa
19:00 7,2 °C 0 mm/h 3 % 7,7 m/s 17,8 m/s 1010 hPa
20:00 7 °C 0 mm/h 1 % 7,6 m/s 17,4 m/s 1010 hPa
21:00 7,1 °C 0,01 mm/h 6 % 7,7 m/s 17,3 m/s 1010 hPa
22:00 7,4 °C 0,11 mm/h 89 % 7,4 m/s 16,9 m/s 1010 hPa
23:00 7,2 °C 1,46 mm/h 97 % 7,1 m/s 16,8 m/s 1011 hPa

Forecast data of ČHMÚ (Czech hydrometeorological institute) based on Aladin numerical model for Konstantinovy Lázně area. The data is updated daily at 6:00.

Time Weather Temperature Precipitation Clouds Wind Wind Bumps Pressure
00:00 5,3 °C 0,39 mm/h 97 % 5,6 m/s 16,2 m/s 1013 hPa
01:00 4,8 °C 0,04 mm/h 5 % 4,5 m/s 12,5 m/s 1013 hPa
02:00 4,4 °C 0 mm/h 20 % 3,8 m/s 9,7 m/s 1014 hPa
03:00 3,9 °C 0 mm/h 5 % 4,2 m/s 9,2 m/s 1015 hPa
04:00 3,2 °C 0 mm/h 0 % 4 m/s 9,3 m/s 1016 hPa
05:00 2,8 °C 0 mm/h 0 % 4,2 m/s 9,1 m/s 1016 hPa
06:00 2,6 °C 0 mm/h 6 % 4,4 m/s 9,7 m/s 1017 hPa
07:00 2,2 °C 0 mm/h 0 % 4,2 m/s 9,7 m/s 1017 hPa
08:00 2 °C 0 mm/h 0 % 4,9 m/s 10,8 m/s 1018 hPa
09:00 2,6 °C 0 mm/h 0 % 4,6 m/s 10,9 m/s 1018 hPa
10:00 3,8 °C 0 mm/h 10 % 4,6 m/s 10,3 m/s 1018 hPa
11:00 5 °C 0 mm/h 80 % 5,1 m/s 11,5 m/s 1018 hPa
12:00 5,9 °C 0 mm/h 65 % 5,3 m/s 11,8 m/s 1018 hPa
13:00 6,5 °C 0 mm/h 63 % 5,9 m/s 13,2 m/s 1017 hPa
14:00 6,8 °C 0 mm/h 35 % 6,3 m/s 14,3 m/s 1017 hPa
15:00 6,7 °C 0 mm/h 18 % 6,6 m/s 14,9 m/s 1017 hPa
16:00 5,9 °C 0 mm/h 37 % 6,7 m/s 15,7 m/s 1018 hPa
17:00 5,3 °C 0 mm/h 51 % 6,4 m/s 14,9 m/s 1018 hPa
18:00 4,7 °C 0,01 mm/h 42 % 6,2 m/s 14,1 m/s 1018 hPa
19:00 4,3 °C 0,02 mm/h 3 % 6,4 m/s 14,2 m/s 1019 hPa
20:00 4,1 °C 0,01 mm/h 1 % 6,6 m/s 14,8 m/s 1019 hPa
21:00 4,3 °C 0 mm/h 3 % 6,7 m/s 14,7 m/s 1020 hPa
22:00 4,3 °C 0 mm/h 18 % 7,1 m/s 15,8 m/s 1021 hPa
23:00 4,5 °C 0 mm/h 85 % 6,7 m/s 15,9 m/s 1021 hPa

Forecast data of ČHMÚ (Czech hydrometeorological institute) based on Aladin numerical model for Konstantinovy Lázně area. The data is updated daily at 6:00.

Time Weather Temperature Precipitation Clouds Wind Wind Bumps Pressure
00:00 4,6 °C 0,01 mm/h 93 % 6,2 m/s 15 m/s 1022 hPa
01:00 4,8 °C 0,07 mm/h 99 % 5,6 m/s 13,7 m/s 1022 hPa
02:00 4,9 °C 0,07 mm/h 98 % 5,5 m/s 12,7 m/s 1022 hPa
03:00 5 °C 0,34 mm/h 100 % 5 m/s 12,1 m/s 1022 hPa
04:00 5,1 °C 0,54 mm/h 100 % 4,7 m/s 11,6 m/s 1023 hPa
05:00 4,7 °C 0,2 mm/h 75 % 4,4 m/s 10,3 m/s 1023 hPa
06:00 4,3 °C 0,02 mm/h 75 % 4,3 m/s 9,7 m/s 1024 hPa
07:00 3,8 °C 0,01 mm/h 48 % 4,1 m/s 9,3 m/s 1025 hPa
08:00 3,4 °C 0 mm/h 78 % 3,7 m/s 8,9 m/s 1025 hPa
09:00 3,7 °C 0 mm/h 83 % 3,7 m/s 8,2 m/s 1026 hPa
10:00 4,8 °C 0 mm/h 5 % 4,3 m/s 9,6 m/s 1027 hPa
11:00 5,8 °C 0 mm/h 28 % 4,6 m/s 10,7 m/s 1027 hPa
12:00 6,7 °C 0 mm/h 69 % 4,3 m/s 10,2 m/s 1027 hPa
13:00 7,2 °C 0 mm/h 73 % 4 m/s 9,8 m/s 1028 hPa
14:00 7,1 °C 0,04 mm/h 27 % 3,9 m/s 10,3 m/s 1028 hPa
15:00 7,4 °C 0 mm/h 72 % 4,4 m/s 9,9 m/s 1027 hPa
16:00 6,8 °C 0,01 mm/h 43 % 3,7 m/s 10 m/s 1028 hPa
17:00 6,7 °C 0,01 mm/h 38 % 2,5 m/s 8,1 m/s 1029 hPa
18:00 5,7 °C 0 mm/h 20 % 1,9 m/s 5,5 m/s 1029 hPa
19:00 4,3 °C 0 mm/h 41 % 2 m/s 4,1 m/s 1029 hPa
20:00 3,5 °C 0 mm/h 48 % 1,5 m/s 4,1 m/s 1030 hPa
21:00 2,5 °C 0 mm/h 45 % 1,8 m/s 3,5 m/s 1031 hPa
22:00 2 °C 0 mm/h 64 % 2 m/s 3,9 m/s 1031 hPa
23:00 1,4 °C 0 mm/h 67 % 1,2 m/s 3,9 m/s 1031 hPa

Forecast data of ČHMÚ (Czech hydrometeorological institute) based on Aladin numerical model for Konstantinovy Lázně area. The data is updated daily at 6:00.